createdAt,value
2018-03-04T10:54:11.575Z,42464
2018-03-04T10:55:13.099Z,42944
2018-03-04T10:56:34.642Z,51264
2018-03-04T10:57:36.008Z,46880
2018-03-04T10:59:00.010Z,45536
2018-03-04T11:00:01.455Z,47552
2018-03-04T11:01:02.821Z,43968
2018-03-04T11:02:04.180Z,44384
2018-03-04T11:03:05.565Z,45536
2018-03-04T11:04:07.012Z,49632
2018-03-04T11:05:08.404Z,54400
2018-03-04T11:06:09.836Z,30784
2018-03-04T11:07:11.196Z,59552
2018-03-04T11:08:12.569Z,59680
2018-03-04T11:09:13.939Z,67584
2018-03-04T11:10:15.311Z,76352
2018-03-04T11:11:16.681Z,66080
2018-03-04T11:12:18.053Z,51488
2018-03-04T11:13:19.426Z,73568
2018-03-04T11:14:20.804Z,79104
2018-03-04T11:15:22.231Z,76000
2018-03-04T11:16:23.576Z,83648
2018-03-04T11:17:24.961Z,79712
2018-03-04T11:18:26.345Z,83680
2018-03-04T11:19:27.723Z,55808
2018-03-04T11:20:29.134Z,54976
2018-03-04T11:21:30.469Z,78976
2018-03-04T11:22:31.843Z,54720
2018-03-04T11:23:33.907Z,51232
2018-03-04T11:24:35.307Z,74432
2018-03-04T11:25:36.686Z,60928
2018-03-04T11:26:38.071Z,51840
2018-03-04T11:27:39.446Z,60288
2018-03-04T11:28:40.844Z,65120
2018-03-04T11:29:42.191Z,81984
2018-03-04T11:30:43.557Z,77920
2018-03-04T11:31:44.924Z,53632
2018-03-04T11:32:46.294Z,46240
2018-03-04T11:33:47.681Z,46016
2018-03-04T11:34:49.046Z,52000
2018-03-04T11:35:50.412Z,56224
2018-03-04T11:36:51.780Z,55264
2018-03-04T11:37:53.189Z,65376
2018-03-04T11:38:54.579Z,51808
2018-03-04T11:39:55.945Z,47968
2018-03-04T11:40:57.336Z,61696
2018-03-04T11:41:58.726Z,60128
2018-03-04T11:43:00.094Z,59488
2018-03-04T11:44:01.466Z,77248
2018-03-04T11:45:02.833Z,59712
2018-03-04T11:46:04.207Z,47712
2018-03-04T11:47:05.602Z,71424
2018-03-04T11:48:06.971Z,73632
2018-03-04T11:49:08.347Z,76928
2018-03-04T11:50:09.715Z,67552
2018-03-04T11:51:11.108Z,60448
2018-03-04T11:52:12.477Z,61664
2018-03-04T11:53:13.847Z,57248
2018-03-04T11:54:15.220Z,57632
2018-03-04T11:55:16.593Z,72512
2018-03-04T11:56:17.964Z,62880
2018-03-04T11:57:19.339Z,74656
2018-03-04T11:58:20.749Z,69664
2018-03-04T11:59:22.118Z,64576
2018-03-04T12:00:23.544Z,70272
2018-03-04T12:01:24.922Z,88320
2018-03-04T12:02:26.300Z,70240
2018-03-04T12:03:27.689Z,65472
2018-03-04T12:04:29.072Z,85152
2018-03-04T12:05:30.449Z,72096
2018-03-04T12:06:31.817Z,72832
2018-03-04T12:07:33.234Z,68864
2018-03-04T12:08:34.600Z,75072
2018-03-04T12:09:36.067Z,70720
2018-03-04T12:10:37.404Z,69856
2018-03-04T12:11:38.767Z,76640
2018-03-04T12:12:40.160Z,75968
2018-03-04T12:13:41.542Z,68704
2018-03-04T12:14:42.940Z,70176
2018-03-04T12:15:44.299Z,71872
2018-03-04T12:16:45.676Z,73280
2018-03-04T12:17:47.048Z,71040
2018-03-04T12:18:48.430Z,70688
2018-03-04T12:19:49.796Z,69248
2018-03-04T12:20:51.173Z,67456
2018-03-04T12:21:52.548Z,67936
2018-03-04T12:22:53.931Z,69696
2018-03-04T12:23:55.401Z,71040
2018-03-04T12:24:56.741Z,69152
2018-03-04T12:25:58.156Z,67616
2018-03-04T12:26:59.527Z,67168
2018-03-04T12:28:00.906Z,66080
2018-03-04T12:29:02.290Z,65824
2018-03-04T12:30:03.695Z,67456
2018-03-04T12:31:05.128Z,69408
2018-03-04T12:32:06.547Z,67520
2018-03-04T12:33:07.929Z,65728
2018-03-04T12:34:09.309Z,65568
2018-03-04T12:35:10.680Z,66272
2018-03-04T12:36:12.057Z,63296
2018-03-04T12:37:13.423Z,62176
2018-03-04T12:38:14.795Z,64384
2018-03-04T12:39:16.182Z,62272
2018-03-04T12:40:17.567Z,62304
2018-03-04T12:41:18.940Z,62240
2018-03-04T12:42:20.321Z,62816
2018-03-04T12:43:21.697Z,62528
2018-03-04T12:44:23.072Z,61984
2018-03-04T12:45:24.457Z,58464
2018-03-04T12:46:25.834Z,62304
2018-03-04T12:47:27.259Z,63968
2018-03-04T12:48:28.586Z,61824
2018-03-04T12:49:29.952Z,59808
2018-03-04T12:50:31.331Z,55616
2018-03-04T12:51:32.711Z,50688
2018-03-04T12:52:34.129Z,56416
2018-03-04T12:53:35.530Z,50848
2018-03-04T12:54:36.902Z,48512
2018-03-04T12:55:38.267Z,48992
2018-03-04T12:56:39.638Z,46048
2018-03-04T12:57:41.026Z,53472
2018-03-04T12:58:42.401Z,53152
2018-03-04T12:59:43.776Z,52448
2018-03-04T13:00:45.153Z,53408
2018-03-04T13:01:46.529Z,54496
2018-03-04T13:02:47.902Z,57312
2018-03-04T13:03:49.293Z,58784
2018-03-04T13:04:50.671Z,53408
2018-03-04T13:05:52.049Z,38592
2018-03-04T13:06:53.458Z,30720
2018-03-04T13:07:54.795Z,26208
2018-03-04T13:08:56.163Z,32992
2018-03-04T13:09:57.535Z,34688
2018-03-04T13:10:58.937Z,33760
2018-03-04T13:12:00.307Z,31456
2018-03-04T13:13:01.689Z,29376
2018-03-04T13:14:03.726Z,31072
2018-03-04T13:15:05.096Z,32192
2018-03-04T13:16:06.480Z,33152
2018-03-04T13:17:07.859Z,31104
2018-03-04T13:18:09.231Z,30624
2018-03-04T13:19:11.466Z,31040
2018-03-04T13:20:12.841Z,31872
2018-03-04T13:21:14.213Z,30816
2018-03-04T13:22:15.581Z,29248
2018-03-04T13:23:16.959Z,27392
2018-03-04T13:24:18.324Z,26592
2018-03-04T13:25:19.698Z,26752
2018-03-04T13:26:21.071Z,27584
2018-03-04T13:27:22.436Z,28416
2018-03-04T13:28:23.802Z,29728
2018-03-04T13:29:25.168Z,29632
2018-03-04T13:30:26.540Z,29472
2018-03-04T13:31:27.915Z,30560
2018-03-04T13:32:29.285Z,31296
2018-03-04T13:33:30.652Z,32480
2018-03-04T13:34:32.016Z,33472
2018-03-04T13:35:33.435Z,33856
2018-03-04T13:36:34.810Z,34048
2018-03-04T13:37:36.178Z,33184
2018-03-04T13:38:37.585Z,31296
2018-03-04T13:39:38.961Z,28832
2018-03-04T13:40:40.402Z,26464
2018-03-04T13:41:41.742Z,24896
2018-03-04T13:42:43.115Z,23616
2018-03-04T13:43:44.520Z,22720
2018-03-04T13:44:45.862Z,22176
2018-03-04T13:45:47.227Z,22112
2018-03-04T13:46:48.607Z,22720
2018-03-04T13:47:49.969Z,23200
2018-03-04T13:48:51.361Z,24544
2018-03-04T13:49:52.730Z,25792
2018-03-04T13:50:54.096Z,27328
2018-03-04T13:51:55.490Z,28960
2018-03-04T13:52:56.850Z,29440
2018-03-04T13:53:58.209Z,30688
2018-03-04T13:54:59.617Z,33536
2018-03-04T13:56:00.957Z,35296
2018-03-04T13:57:02.340Z,35648
2018-03-04T13:58:03.760Z,36928
2018-03-04T13:59:05.141Z,37088
2018-03-04T14:00:06.512Z,36032
2018-03-04T14:01:07.873Z,34016
2018-03-04T14:02:09.242Z,32512
2018-03-04T14:03:10.603Z,29856
2018-03-04T14:04:11.972Z,28736
2018-03-04T14:05:13.347Z,26048
2018-03-04T14:06:14.724Z,24192
2018-03-04T14:07:16.082Z,23040
2018-03-04T14:08:17.461Z,21824
2018-03-04T14:09:18.819Z,21824
2018-03-04T14:10:20.235Z,21344
2018-03-04T14:11:21.594Z,21632
2018-03-04T14:12:22.973Z,22400
2018-03-04T14:13:24.344Z,23488
2018-03-04T14:14:25.717Z,24448
2018-03-04T14:15:27.086Z,24384
2018-03-04T14:16:28.525Z,23360
2018-03-04T14:17:29.821Z,22976
2018-03-04T14:18:31.195Z,22976
2018-03-04T14:19:32.571Z,22720
2018-03-04T14:20:34.074Z,21600
2018-03-04T14:21:35.452Z,21088
2018-03-04T14:22:36.899Z,20512
2018-03-04T14:23:38.273Z,20000
2018-03-04T14:24:39.651Z,20032
2018-03-04T14:25:41.011Z,19584
2018-03-04T14:26:42.379Z,20064
2018-03-04T14:27:43.744Z,20960
2018-03-04T14:28:45.116Z,22080
2018-03-04T14:29:46.483Z,21792
2018-03-04T14:30:47.849Z,22176
2018-03-04T14:31:49.218Z,21824
2018-03-04T14:32:50.584Z,21728
2018-03-04T14:33:51.957Z,21664
2018-03-04T14:34:53.332Z,22112
2018-03-04T14:35:54.704Z,21888
2018-03-04T14:36:56.087Z,21056
2018-03-04T14:37:57.438Z,19648
2018-03-04T14:38:58.814Z,19040
2018-03-04T14:40:01.301Z,18848
2018-03-04T14:41:02.676Z,18496
2018-03-04T14:42:04.069Z,18496
2018-03-04T14:43:05.462Z,18848
2018-03-04T14:44:06.821Z,18784
2018-03-04T14:45:08.191Z,19008
2018-03-04T14:46:09.600Z,18560
2018-03-04T14:47:10.921Z,18592
2018-03-04T14:48:12.305Z,18272
2018-03-04T14:49:13.676Z,17920
2018-03-04T14:50:15.052Z,17288
2018-03-04T14:51:16.414Z,16832
2018-03-04T14:52:17.774Z,16568
2018-03-04T14:53:19.139Z,16408
2018-03-04T14:54:20.508Z,16324
2018-03-04T14:55:21.881Z,16180
2018-03-04T14:56:23.239Z,16016
2018-03-04T14:57:24.609Z,15804
2018-03-04T14:58:25.979Z,15516
2018-03-04T14:59:27.342Z,15248
2018-03-04T15:00:28.712Z,15020
2018-03-04T15:01:30.083Z,14844
2018-03-04T15:02:31.469Z,14696
2018-03-04T15:03:32.838Z,14440
2018-03-04T15:04:34.215Z,14096
2018-03-04T15:05:35.630Z,13716
2018-03-04T15:06:37.003Z,13332
2018-03-04T15:07:38.420Z,13064
2018-03-04T15:08:39.785Z,12932
2018-03-04T15:09:41.207Z,12872
2018-03-04T15:10:42.518Z,12844
2018-03-04T15:11:43.886Z,12832
2018-03-04T15:12:45.246Z,12972
2018-03-04T15:13:46.603Z,13372
2018-03-04T15:14:47.971Z,13976
2018-03-04T15:15:49.329Z,14528
2018-03-04T15:16:50.716Z,14776
2018-03-04T15:17:52.162Z,14628
2018-03-04T15:18:53.684Z,14192
2018-03-04T15:19:55.077Z,13616
2018-03-04T15:20:56.531Z,13028
2018-03-04T15:21:57.891Z,12468
2018-03-04T15:22:59.274Z,11936
2018-03-04T15:24:00.633Z,11444
2018-03-04T15:25:02.007Z,11040
2018-03-04T15:26:03.916Z,10852
2018-03-04T15:27:05.282Z,10808
2018-03-04T15:28:06.682Z,10820
2018-03-04T15:29:08.062Z,10880
2018-03-04T15:30:09.433Z,11032
2018-03-04T15:31:10.793Z,11356
2018-03-04T15:32:12.166Z,11868
2018-03-04T15:33:13.530Z,12596
2018-03-04T15:34:14.893Z,13368
2018-03-04T15:35:16.252Z,13852
2018-03-04T15:36:17.621Z,13804
2018-03-04T15:37:18.990Z,13160
2018-03-04T15:38:20.354Z,12232
2018-03-04T15:39:21.724Z,11392
2018-03-04T15:40:23.113Z,10820
2018-03-04T15:41:24.520Z,10388
2018-03-04T15:42:25.883Z,9988
2018-03-04T15:43:27.387Z,9644
2018-03-04T15:44:28.762Z,9332
2018-03-04T15:45:30.125Z,9032
2018-03-04T15:46:31.487Z,8780
2018-03-04T15:47:32.847Z,8572
2018-03-04T15:48:34.215Z,8388
2018-03-04T15:49:35.584Z,8284
2018-03-04T15:50:36.943Z,8208
2018-03-04T15:51:38.311Z,8144
2018-03-04T15:52:39.705Z,8072
2018-03-04T15:53:41.073Z,7984
2018-03-04T15:54:42.466Z,7852
2018-03-04T15:55:43.809Z,7652
2018-03-04T15:56:45.236Z,7368
2018-03-04T15:57:46.546Z,7032
2018-03-04T15:58:47.901Z,6708
2018-03-04T15:59:49.268Z,6400
2018-03-04T16:00:50.629Z,6164
2018-03-04T16:01:51.983Z,5956
2018-03-04T16:02:53.341Z,5752
2018-03-04T16:03:54.735Z,5528
2018-03-04T16:04:56.603Z,5288
2018-03-04T16:05:57.984Z,5068
2018-03-04T16:06:59.350Z,4888
2018-03-04T16:08:00.709Z,4744
2018-03-04T16:09:02.081Z,4628
2018-03-04T16:10:04.050Z,4544
2018-03-04T16:11:06.341Z,4448
2018-03-04T16:12:08.380Z,4332
2018-03-04T16:13:10.340Z,4140
2018-03-04T16:14:12.718Z,3944
2018-03-04T16:15:14.862Z,3808
2018-03-04T16:16:16.839Z,3728
2018-03-04T16:17:18.732Z,3684
2018-03-04T16:18:20.974Z,3632
2018-03-04T16:19:22.342Z,3560
2018-03-04T16:20:23.705Z,3476
2018-03-04T16:21:25.848Z,3424
2018-03-04T16:22:27.847Z,3428
2018-03-04T16:23:29.759Z,3516
2018-03-04T16:24:32.056Z,3656
2018-03-04T16:25:34.071Z,3804
2018-03-04T16:26:36.011Z,3908
2018-03-04T16:27:38.318Z,3956
2018-03-04T16:28:40.425Z,3964
2018-03-04T16:29:42.454Z,3956
2018-03-04T16:30:44.379Z,3940
2018-03-04T16:31:45.747Z,3928
2018-03-04T16:32:47.131Z,3912
2018-03-04T16:33:49.092Z,3896
2018-03-04T16:34:51.278Z,3868
2018-03-04T16:35:51.814Z,3828
2018-03-04T16:36:53.268Z,3740
2018-03-04T16:37:54.586Z,3608
2018-03-04T16:38:55.955Z,3436
2018-03-04T16:39:57.959Z,3236
2018-03-04T16:40:59.326Z,3004
2018-03-04T16:42:00.692Z,2772
2018-03-04T16:43:02.768Z,2520
2018-03-04T16:44:04.700Z,2256
2018-03-04T16:45:06.997Z,2000
2018-03-04T16:46:09.120Z,1776
2018-03-04T16:47:11.101Z,1588
2018-03-04T16:48:13.403Z,1436
2018-03-04T16:49:15.531Z,1304
2018-03-04T16:50:17.483Z,1196
2018-03-04T16:51:19.783Z,1100
2018-03-04T16:52:20.226Z,1024
2018-03-04T16:53:22.214Z,964
2018-03-04T16:54:23.579Z,904
2018-03-04T16:55:24.935Z,860
2018-03-04T16:56:26.943Z,816
2018-03-04T16:57:28.875Z,772
2018-03-04T16:58:30.227Z,736
2018-03-04T16:59:31.592Z,700
2018-03-04T17:00:34.819Z,660
2018-03-04T17:01:35.522Z,612
2018-03-04T17:02:37.719Z,576
2018-03-04T17:03:39.786Z,536
2018-03-04T17:04:41.665Z,496
2018-03-04T17:05:43.835Z,460
2018-03-04T17:06:45.956Z,428
2018-03-04T17:07:47.929Z,396
2018-03-04T17:08:49.296Z,368
2018-03-04T17:09:50.716Z,344
2018-03-04T17:10:52.713Z,316
2018-03-04T17:11:55.049Z,280
2018-03-04T17:12:57.267Z,252
2018-03-04T17:13:59.315Z,220
2018-03-04T17:15:01.222Z,188
2018-03-04T17:16:02.647Z,168
2018-03-04T17:17:04.041Z,144
2018-03-04T17:18:05.453Z,128
2018-03-04T17:19:06.815Z,112
2018-03-04T17:20:08.173Z,96
2018-03-04T17:21:10.405Z,80
2018-03-04T17:22:11.756Z,72
2018-03-04T17:23:13.114Z,60
2018-03-04T17:24:14.494Z,52
2018-03-04T17:25:15.850Z,48
2018-03-04T17:26:17.204Z,40
2018-03-04T17:27:18.555Z,32
2018-03-04T17:28:19.951Z,32
2018-03-04T17:29:21.300Z,24
2018-03-04T17:30:22.669Z,20
2018-03-04T17:31:24.017Z,16
2018-03-04T17:32:25.393Z,16
2018-03-04T17:33:26.750Z,12
2018-03-04T17:34:28.098Z,12
2018-03-04T17:35:29.456Z,4
2018-03-04T17:36:30.801Z,8
2018-03-04T17:37:32.250Z,8
2018-03-04T17:38:33.518Z,4
2018-03-04T17:39:34.892Z,0
2018-03-04T17:40:36.240Z,4
2018-03-04T17:41:37.600Z,4
2018-03-04T17:42:38.949Z,0
2018-03-04T17:43:40.317Z,4
2018-03-04T17:44:41.690Z,4
2018-03-04T17:45:43.125Z,0
2018-03-04T17:46:44.478Z,0
2018-03-04T17:47:45.842Z,0
2018-03-04T17:48:47.205Z,0
2018-03-04T17:49:48.550Z,0
2018-03-04T17:50:49.943Z,0
2018-03-04T17:51:51.270Z,0
2018-03-04T17:52:52.635Z,0
2018-03-04T17:53:53.994Z,0
2018-03-04T17:54:55.344Z,0
2018-03-04T17:55:56.696Z,0
2018-03-04T17:56:58.045Z,0
2018-03-04T17:57:59.389Z,0
2018-03-04T17:59:00.753Z,0
2018-03-04T18:00:02.109Z,0
2018-03-04T18:01:03.491Z,0
2018-03-04T18:02:04.854Z,0
2018-03-04T18:03:06.233Z,0
2018-03-04T18:04:07.590Z,0
2018-03-04T18:05:08.933Z,0
2018-03-04T18:06:10.299Z,0
2018-03-04T18:07:11.645Z,0
2018-03-04T18:08:13.017Z,0
2018-03-04T18:09:14.360Z,0
2018-03-04T18:10:15.709Z,0
2018-03-04T18:11:17.060Z,0
2018-03-04T18:12:18.419Z,0
2018-03-04T18:13:19.770Z,0
2018-03-04T18:14:21.179Z,0
2018-03-04T18:15:22.507Z,0
2018-03-04T18:16:23.879Z,0
2018-03-04T18:17:25.233Z,0
2018-03-04T18:18:26.589Z,0
2018-03-04T18:19:27.941Z,0
2018-03-04T18:20:29.306Z,0
2018-03-04T18:21:30.694Z,0
2018-03-04T18:22:32.054Z,0
2018-03-04T18:23:33.439Z,0
2018-03-04T18:24:34.809Z,0
2018-03-04T18:25:36.185Z,0
2018-03-04T18:26:37.543Z,0
2018-03-04T18:27:38.892Z,0
2018-03-04T18:28:40.254Z,0
2018-03-04T18:29:41.612Z,0
2018-03-04T18:30:42.967Z,0
2018-03-04T18:31:44.322Z,0
2018-03-04T18:32:45.666Z,0
2018-03-04T18:33:47.536Z,0
2018-03-04T18:34:48.883Z,0
2018-03-04T18:35:50.240Z,0
2018-03-04T18:36:51.656Z,0
2018-03-04T18:37:53.021Z,0
2018-03-04T18:38:54.369Z,0
2018-03-04T18:39:55.748Z,0
2018-03-04T18:40:57.103Z,0
2018-03-04T18:41:58.474Z,0
2018-03-04T18:42:59.840Z,0
2018-03-04T18:44:01.196Z,0
2018-03-04T18:45:02.555Z,0
2018-03-04T18:46:03.955Z,0
2018-03-04T18:47:05.308Z,0
2018-03-04T18:48:06.675Z,0
2018-03-04T18:49:08.076Z,0
2018-03-04T18:50:09.429Z,0
2018-03-04T18:51:10.811Z,0
2018-03-04T18:52:12.168Z,0
2018-03-04T18:53:14.144Z,0
2018-03-04T18:54:16.472Z,0
2018-03-04T18:55:18.659Z,0
2018-03-04T18:56:20.686Z,0
2018-03-04T18:57:22.586Z,0
2018-03-04T18:58:24.859Z,0
2018-03-04T18:59:25.294Z,0
2018-03-04T19:00:27.214Z,0
2018-03-04T19:01:29.510Z,0
2018-03-04T19:02:31.604Z,0
2018-03-04T19:03:33.567Z,0
2018-03-04T19:04:35.861Z,0
2018-03-04T19:05:36.286Z,0
2018-03-04T19:06:38.287Z,0
2018-03-04T19:07:40.647Z,0
2018-03-04T19:08:42.834Z,0
2018-03-04T19:09:44.864Z,0
2018-03-04T19:10:46.216Z,0
2018-03-04T19:11:47.596Z,0
2018-03-04T19:12:49.681Z,0
2018-03-04T19:13:51.522Z,0
2018-03-04T19:14:53.784Z,0
2018-03-04T19:15:55.897Z,0
2018-03-04T19:16:57.875Z,0
2018-03-04T19:18:00.190Z,0
2018-03-04T19:19:02.360Z,0
2018-03-04T19:20:05.107Z,0
2018-03-04T19:21:06.462Z,0
2018-03-04T19:22:08.687Z,0
2018-03-04T19:23:10.035Z,0
2018-03-04T19:24:11.386Z,0
2018-03-04T19:25:12.739Z,0
2018-03-04T19:26:14.093Z,0
2018-03-04T19:27:15.453Z,0
2018-03-04T19:28:16.828Z,0
2018-03-04T19:29:18.178Z,0
2018-03-04T19:30:19.532Z,0
2018-03-04T19:31:20.884Z,0
2018-03-04T19:32:22.235Z,0
2018-03-04T19:33:23.595Z,0
2018-03-04T19:34:24.996Z,0
2018-03-04T19:35:26.280Z,0
2018-03-04T19:36:27.662Z,0
2018-03-04T19:37:29.040Z,0
2018-03-04T19:38:30.414Z,0
2018-03-04T19:39:31.784Z,0
2018-03-04T19:40:33.159Z,0
2018-03-04T19:41:34.510Z,0
2018-03-04T19:42:35.902Z,0
2018-03-04T19:43:37.210Z,0
2018-03-04T19:44:38.574Z,0
2018-03-04T19:45:39.931Z,0
2018-03-04T19:46:41.300Z,0
2018-03-04T19:47:42.693Z,0
2018-03-04T19:48:44.048Z,0
2018-03-04T19:49:45.424Z,0
2018-03-04T19:50:46.773Z,0
2018-03-04T19:51:48.146Z,0
2018-03-04T19:52:49.542Z,0
2018-03-04T19:53:50.915Z,0
2018-03-04T19:54:52.284Z,0
2018-03-04T19:55:53.680Z,0
2018-03-04T19:56:55.035Z,0
2018-03-04T19:57:56.387Z,0
2018-03-04T19:58:57.784Z,0
2018-03-04T19:59:59.097Z,0
2018-03-04T20:01:00.456Z,0
2018-03-04T20:02:01.811Z,0
2018-03-04T20:03:03.222Z,0
2018-03-04T20:04:04.610Z,0
2018-03-04T20:05:05.969Z,0
2018-03-04T20:06:07.353Z,0
2018-03-04T20:07:09.624Z,0
2018-03-04T20:08:12.928Z,0
2018-03-04T20:09:14.287Z,0
2018-03-04T20:10:16.653Z,0
2018-03-04T20:11:18.028Z,0
2018-03-04T20:12:19.383Z,0
2018-03-04T20:13:21.674Z,0
2018-03-04T20:14:23.078Z,0
2018-03-04T20:15:25.436Z,0
2018-03-04T20:16:26.810Z,0
2018-03-04T20:17:28.168Z,0
2018-03-04T20:18:29.584Z,0
2018-03-04T20:19:30.976Z,0
2018-03-04T20:20:32.343Z,0
2018-03-04T20:21:33.736Z,0
2018-03-04T20:22:35.675Z,0
2018-03-04T20:23:37.034Z,0
2018-03-04T20:24:39.209Z,0
2018-03-04T20:25:40.585Z,0
2018-03-04T20:26:42.617Z,0
2018-03-04T20:27:44.009Z,0
2018-03-04T20:28:46.176Z,0
2018-03-04T20:29:47.969Z,0
2018-03-04T20:30:49.403Z,0
2018-03-04T20:31:50.910Z,0
2018-03-04T20:32:52.242Z,0
2018-03-04T20:33:53.590Z,0
2018-03-04T20:34:54.980Z,0
2018-03-04T20:35:56.324Z,0
2018-03-04T20:36:57.721Z,0
2018-03-04T20:37:59.112Z,0
2018-03-04T20:39:00.484Z,0
2018-03-04T20:40:01.862Z,0
2018-03-04T20:41:04.064Z,0
2018-03-04T20:42:05.421Z,0
2018-03-04T20:43:06.785Z,0
2018-03-04T20:44:08.159Z,0
2018-03-04T20:45:09.540Z,0
2018-03-04T20:46:10.887Z,0
2018-03-04T20:47:12.244Z,0
2018-03-04T20:48:13.623Z,0
2018-03-04T20:49:14.961Z,0
2018-03-04T20:50:16.368Z,0
2018-03-04T20:51:17.689Z,0
2018-03-04T20:52:19.072Z,0
2018-03-04T20:53:20.429Z,0
2018-03-04T20:54:21.780Z,0
2018-03-04T20:55:23.135Z,0
2018-03-04T20:56:24.495Z,0
2018-03-04T20:57:25.843Z,0
2018-03-04T20:58:27.204Z,0
2018-03-04T20:59:28.563Z,0
2018-03-04T21:00:29.919Z,0
2018-03-04T21:01:31.301Z,0
2018-03-04T21:02:32.656Z,0
2018-03-04T21:03:34.035Z,0
2018-03-04T21:04:35.391Z,0
2018-03-04T21:05:36.745Z,0
2018-03-04T21:06:38.110Z,0
2018-03-04T21:07:39.456Z,0
2018-03-04T21:08:40.831Z,0
2018-03-04T21:09:42.180Z,0
2018-03-04T21:10:43.573Z,0
2018-03-04T21:11:44.925Z,0
2018-03-04T21:12:46.285Z,0
2018-03-04T21:13:47.658Z,0
2018-03-04T21:14:49.012Z,0
2018-03-04T21:15:50.368Z,0
2018-03-04T21:16:51.750Z,0
2018-03-04T21:17:53.097Z,0
2018-03-04T21:18:54.456Z,0
2018-03-04T21:19:55.818Z,0
2018-03-04T21:20:57.176Z,0
2018-03-04T21:21:58.526Z,0
2018-03-04T21:22:59.908Z,0
2018-03-04T21:24:01.263Z,0
2018-03-04T21:25:02.624Z,0
2018-03-04T21:26:04.024Z,0
2018-03-04T21:27:05.387Z,0
2018-03-04T21:28:06.732Z,0
2018-03-04T21:29:08.089Z,0
2018-03-04T21:30:09.443Z,0
2018-03-04T21:31:10.813Z,0
2018-03-04T21:32:12.161Z,0
2018-03-04T21:33:13.524Z,0
2018-03-04T21:34:14.879Z,0
2018-03-04T21:35:16.247Z,0
2018-03-04T21:36:17.627Z,0
2018-03-04T21:37:18.923Z,0
2018-03-04T21:38:20.298Z,0
2018-03-04T21:39:21.648Z,0
2018-03-04T21:40:22.992Z,0
2018-03-04T21:41:24.359Z,0
2018-03-04T21:42:25.707Z,0
2018-03-04T21:43:27.048Z,0
2018-03-04T21:44:28.416Z,0
2018-03-04T21:45:29.771Z,0
2018-03-04T21:46:31.127Z,0
2018-03-04T21:47:32.484Z,0
2018-03-04T21:48:33.878Z,0
2018-03-04T21:49:35.238Z,0
2018-03-04T21:50:36.594Z,0
2018-03-04T21:51:37.945Z,0
2018-03-04T21:52:39.331Z,0
2018-03-04T21:53:40.705Z,0
2018-03-04T21:54:42.058Z,0
2018-03-04T21:55:43.455Z,0
2018-03-04T21:56:44.767Z,0
2018-03-04T21:57:46.117Z,0
2018-03-04T21:58:47.465Z,0
2018-03-04T21:59:48.822Z,0
2018-03-04T22:00:50.175Z,0
2018-03-04T22:01:51.525Z,0
2018-03-04T22:02:52.879Z,0
2018-03-04T22:03:54.224Z,0
2018-03-04T22:04:55.587Z,0
2018-03-04T22:05:56.941Z,0
2018-03-04T22:06:58.297Z,0
2018-03-04T22:07:59.638Z,0
2018-03-04T22:09:00.994Z,0
2018-03-04T22:10:02.344Z,0
2018-03-04T22:11:03.740Z,0
2018-03-04T22:12:05.103Z,0
2018-03-04T22:13:06.453Z,0
2018-03-04T22:14:07.814Z,0
2018-03-04T22:15:09.164Z,0
2018-03-04T22:16:10.522Z,0
2018-03-04T22:17:11.879Z,0
2018-03-04T22:18:13.238Z,0
2018-03-04T22:19:14.589Z,0
2018-03-04T22:20:15.945Z,0
2018-03-04T22:21:17.286Z,0
2018-03-04T22:22:18.638Z,0
2018-03-04T22:23:19.986Z,0
2018-03-04T22:24:21.334Z,0
2018-03-04T22:25:22.687Z,0
2018-03-04T22:26:24.050Z,0
2018-03-04T22:27:25.430Z,0
2018-03-04T22:28:26.791Z,0
2018-03-04T22:29:28.147Z,0
2018-03-04T22:30:29.497Z,0
2018-03-04T22:31:31.006Z,0
2018-03-04T22:32:32.862Z,0
2018-03-04T22:33:34.227Z,0
2018-03-04T22:34:35.581Z,0
2018-03-04T22:35:36.928Z,0
2018-03-04T22:36:38.286Z,0
2018-03-04T22:37:39.627Z,0
2018-03-04T22:38:40.986Z,0
2018-03-04T22:39:42.342Z,0
2018-03-04T22:40:43.701Z,0
2018-03-04T22:41:45.054Z,0
2018-03-04T22:42:46.408Z,0
2018-03-04T22:43:47.788Z,0
2018-03-04T22:44:49.132Z,0
2018-03-04T22:45:50.487Z,0
2018-03-04T22:46:51.840Z,0
2018-03-04T22:47:53.215Z,0
2018-03-04T22:48:54.562Z,0
2018-03-04T22:49:55.912Z,0
2018-03-04T22:50:57.262Z,0
2018-03-04T22:51:58.617Z,0
2018-03-04T22:52:59.962Z,0
2018-03-04T22:54:01.317Z,0
2018-03-04T22:55:02.678Z,0
2018-03-04T22:56:04.067Z,0
2018-03-04T22:57:05.424Z,0
2018-03-04T22:58:06.777Z,0
2018-03-04T22:59:08.134Z,0
2018-03-04T23:00:09.486Z,0
2018-03-04T23:01:10.862Z,0
2018-03-04T23:02:12.207Z,0
2018-03-04T23:03:14.294Z,0
2018-03-04T23:04:15.637Z,0
2018-03-04T23:05:16.989Z,0
2018-03-04T23:06:18.334Z,0
2018-03-04T23:07:19.736Z,0
2018-03-04T23:08:21.031Z,0
2018-03-04T23:09:22.386Z,0
2018-03-04T23:10:23.742Z,0
2018-03-04T23:11:25.090Z,0
2018-03-04T23:12:26.445Z,0
2018-03-04T23:13:27.801Z,0
2018-03-04T23:14:29.154Z,0
2018-03-04T23:15:30.508Z,0
2018-03-04T23:16:31.857Z,0
2018-03-04T23:17:33.240Z,0
2018-03-04T23:18:34.582Z,0
2018-03-04T23:19:35.954Z,0
2018-03-04T23:20:37.303Z,0
2018-03-04T23:21:38.658Z,0
2018-03-04T23:22:40.019Z,0
2018-03-04T23:23:41.374Z,0
2018-03-04T23:24:42.735Z,0
2018-03-04T23:25:44.079Z,0
2018-03-04T23:26:45.425Z,0
2018-03-04T23:27:46.777Z,0
2018-03-04T23:28:48.126Z,0
2018-03-04T23:29:49.472Z,0
2018-03-04T23:30:50.822Z,0
2018-03-04T23:31:52.183Z,0
2018-03-04T23:32:53.528Z,0
2018-03-04T23:33:54.880Z,0
2018-03-04T23:34:56.233Z,0
2018-03-04T23:35:57.596Z,0
2018-03-04T23:36:58.951Z,0
2018-03-04T23:38:00.303Z,0
2018-03-04T23:39:01.649Z,0
2018-03-04T23:40:03.001Z,0
2018-03-04T23:41:04.463Z,0
2018-03-04T23:42:05.807Z,0
2018-03-04T23:43:07.171Z,0
2018-03-04T23:44:08.519Z,0
2018-03-04T23:45:09.860Z,0
2018-03-04T23:46:11.219Z,0
2018-03-04T23:47:12.562Z,0
2018-03-04T23:48:13.916Z,0
2018-03-04T23:49:15.261Z,0
2018-03-04T23:50:16.630Z,0
2018-03-04T23:51:17.974Z,0
2018-03-04T23:52:19.320Z,0
2018-03-04T23:53:20.673Z,0
2018-03-04T23:54:22.026Z,0
2018-03-04T23:55:23.366Z,0
2018-03-04T23:56:24.724Z,0
2018-03-04T23:57:26.066Z,0
2018-03-04T23:58:27.422Z,0
2018-03-04T23:59:28.776Z,0
